createdAt,value
2023-02-02T00:00:45.671Z,96.90
2023-02-02T00:05:49.549Z,97.10
2023-02-02T00:10:51.584Z,97.20
2023-02-02T00:15:54.057Z,97.50
2023-02-02T00:20:57.257Z,97.70
2023-02-02T00:25:59.051Z,97.80
2023-02-02T00:31:01.309Z,98.10
2023-02-02T00:36:03.855Z,98.20
2023-02-02T00:41:07.474Z,98.20
2023-02-02T00:46:18.712Z,98.30
2023-02-02T00:51:20.616Z,98.40
2023-02-02T00:56:22.581Z,98.50
2023-02-02T01:01:25.033Z,98.40
2023-02-02T01:06:29.372Z,98.40
2023-02-02T01:11:31.429Z,98.40
2023-02-02T01:16:35.758Z,98.50
2023-02-02T01:21:37.792Z,98.60
2023-02-02T01:26:39.883Z,98.70
2023-02-02T01:31:42.572Z,98.60
2023-02-02T01:36:44.807Z,98.60
2023-02-02T01:41:46.836Z,98.60
2023-02-02T01:46:48.862Z,98.70
2023-02-02T01:51:59.823Z,98.90
2023-02-02T01:57:10.971Z,99.00
2023-02-02T02:02:15.603Z,99.00
2023-02-02T02:07:17.586Z,99.00
2023-02-02T02:12:19.635Z,99.00
2023-02-02T02:17:27.237Z,98.80
2023-02-02T02:23:09.831Z,98.80
2023-02-02T02:28:40.495Z,98.60
2023-02-02T02:33:49.037Z,98.50
2023-02-02T02:39:05.642Z,98.40
2023-02-02T02:44:11.832Z,98.40
2023-02-02T02:49:14.535Z,98.50
2023-02-02T02:54:21.306Z,98.60
2023-02-02T02:59:29.058Z,98.60
2023-02-02T03:04:42.684Z,98.80
2023-02-02T03:09:48.312Z,98.90
2023-02-02T03:14:50.043Z,98.80
2023-02-02T03:19:51.743Z,98.40
2023-02-02T03:24:53.715Z,98.70
2023-02-02T03:29:55.643Z,98.80
2023-02-02T03:34:57.289Z,98.70
2023-02-02T03:39:59.066Z,98.90
2023-02-02T03:45:00.777Z,99.00
2023-02-02T03:50:02.908Z,99.00
2023-02-02T03:55:05.510Z,99.10
2023-02-02T04:00:08.205Z,99.10
2023-02-02T04:05:09.923Z,99.10
2023-02-02T04:10:11.925Z,99.10
2023-02-02T04:15:13.657Z,99.00
2023-02-02T04:20:15.414Z,98.90
2023-02-02T04:25:17.193Z,98.80
2023-02-02T04:30:20.040Z,99.00
2023-02-02T04:35:21.952Z,98.90
2023-02-02T04:40:24.010Z,98.90
2023-02-02T04:45:26.065Z,98.90
2023-02-02T04:50:28.377Z,98.90
2023-02-02T04:55:30.070Z,98.90
2023-02-02T05:00:31.802Z,98.90
2023-02-02T05:05:33.553Z,98.90
2023-02-02T05:10:35.429Z,98.90
2023-02-02T05:15:37.158Z,98.90
2023-02-02T05:20:38.797Z,99.00
2023-02-02T05:25:40.449Z,99.10
2023-02-02T05:30:42.136Z,99.10
2023-02-02T05:35:45.710Z,99.20
2023-02-02T05:40:49.436Z,99.20
2023-02-02T05:45:51.135Z,99.30
2023-02-02T05:51:18.205Z,99.20
2023-02-02T05:56:19.937Z,99.30
2023-02-02T06:01:22.079Z,99.40
2023-02-02T06:06:23.774Z,99.30
2023-02-02T06:11:25.448Z,99.40
2023-02-02T06:16:27.174Z,99.30
2023-02-02T06:21:31.209Z,99.30
2023-02-02T06:26:32.988Z,99.20
2023-02-02T06:31:34.838Z,99.10
2023-02-02T06:36:36.728Z,99.00
2023-02-02T06:41:38.731Z,99.00
2023-02-02T06:46:40.704Z,99.10
2023-02-02T06:51:42.417Z,99.20
2023-02-02T06:56:44.166Z,99.30
2023-02-02T07:01:45.899Z,99.30
2023-02-02T07:06:47.658Z,99.30
2023-02-02T07:11:49.340Z,99.30
2023-02-02T07:16:51.111Z,99.40
2023-02-02T07:21:52.792Z,99.30
2023-02-02T07:26:55.011Z,99.30
2023-02-02T07:31:56.752Z,99.30
2023-02-02T07:36:58.773Z,99.30
2023-02-02T07:42:00.428Z,99.30
2023-02-02T07:47:02.165Z,99.40
2023-02-02T07:52:04.020Z,99.30
2023-02-02T07:57:05.750Z,99.40
2023-02-02T08:02:09.804Z,99.60
2023-02-02T08:07:11.902Z,99.70
2023-02-02T08:12:14.366Z,99.60
2023-02-02T08:17:16.020Z,99.60
2023-02-02T08:22:20.175Z,99.60
2023-02-02T08:27:22.013Z,99.30
2023-02-02T08:32:23.785Z,99.10
2023-02-02T08:37:25.483Z,98.90
2023-02-02T08:42:27.147Z,98.80
2023-02-02T08:47:31.968Z,98.80
2023-02-02T08:52:33.911Z,98.80
2023-02-02T08:57:35.749Z,98.70
2023-02-02T09:02:37.456Z,98.80
2023-02-02T09:07:39.254Z,98.90
2023-02-02T09:12:40.958Z,98.80
2023-02-02T09:17:42.627Z,98.80
2023-02-02T09:22:44.311Z,98.40
2023-02-02T09:27:45.983Z,98.80
2023-02-02T09:32:50.346Z,98.90
2023-02-02T09:37:52.269Z,98.90
2023-02-02T09:43:21.687Z,98.90
2023-02-02T09:48:37.086Z,98.40
2023-02-02T09:53:55.742Z,99.00
2023-02-02T09:59:13.779Z,99.00
2023-02-02T10:04:27.839Z,99.20
2023-02-02T10:10:02.043Z,99.40
2023-02-02T10:15:26.884Z,99.50
2023-02-02T10:20:55.994Z,99.60
2023-02-02T10:26:05.842Z,99.50
2023-02-02T10:31:18.262Z,99.60
2023-02-02T10:36:51.080Z,99.50
2023-02-02T10:42:11.601Z,99.50
2023-02-02T10:47:21.963Z,99.90
2023-02-02T10:52:31.191Z,99.90
2023-02-02T10:57:57.588Z,99.90
2023-02-02T11:03:04.434Z,99.90
2023-02-02T11:08:19.299Z,99.90
2023-02-02T11:13:30.341Z,99.70
2023-02-02T11:18:32.107Z,99.50
2023-02-02T11:23:33.771Z,99.50
2023-02-02T11:28:36.869Z,99.30
2023-02-02T11:33:38.562Z,99.00
2023-02-02T11:38:40.253Z,98.90
2023-02-02T11:43:55.267Z,98.60
2023-02-02T11:49:04.139Z,98.30
2023-02-02T11:54:41.423Z,98.20
2023-02-02T11:59:45.113Z,98.20
2023-02-02T12:04:48.670Z,98.20
2023-02-02T12:09:51.375Z,98.00
2023-02-02T12:15:04.341Z,97.80
2023-02-02T12:20:12.853Z,97.80
2023-02-02T12:25:14.450Z,97.90
2023-02-02T12:30:40.376Z,97.80
2023-02-02T12:35:53.531Z,97.70
2023-02-02T12:41:23.095Z,97.70
2023-02-02T12:46:46.418Z,97.90
2023-02-02T12:52:19.214Z,98.30
2023-02-02T12:57:29.931Z,98.40
2023-02-02T13:02:50.242Z,98.60
2023-02-02T13:07:58.241Z,98.90
2023-02-02T13:13:08.348Z,98.90
2023-02-02T13:18:34.593Z,98.80
2023-02-02T13:23:42.793Z,98.80
2023-02-02T13:29:18.251Z,98.70
2023-02-02T13:34:30.762Z,98.60
2023-02-02T13:39:58.515Z,98.30
2023-02-02T13:45:28.549Z,98.30
2023-02-02T13:50:33.945Z,98.10
2023-02-02T13:56:03.429Z,98.20
2023-02-02T14:01:11.021Z,98.10
2023-02-02T14:06:17.850Z,98.20
2023-02-02T14:11:32.644Z,98.30
2023-02-02T14:16:37.264Z,98.50
2023-02-02T14:21:38.879Z,99.00
2023-02-02T14:26:46.565Z,99.30
2023-02-02T14:31:54.409Z,99.30
2023-02-02T14:37:23.575Z,99.40
2023-02-02T14:42:58.084Z,99.40
2023-02-02T14:48:11.795Z,99.40
2023-02-02T14:53:28.758Z,99.30
2023-02-02T14:58:39.754Z,99.00
2023-02-02T15:03:53.776Z,98.70
2023-02-02T15:09:20.339Z,98.70
2023-02-02T15:14:24.827Z,98.30
2023-02-02T15:19:33.245Z,97.90
2023-02-02T15:24:37.570Z,97.70
2023-02-02T15:29:46.069Z,97.50
2023-02-02T15:34:52.988Z,97.40
2023-02-02T15:39:58.087Z,97.30
2023-02-02T15:44:59.790Z,96.90
2023-02-02T15:50:03.983Z,97.30
2023-02-02T15:55:39.330Z,97.20
2023-02-02T16:00:41.128Z,97.10
2023-02-02T16:05:55.848Z,96.60
2023-02-02T16:11:05.406Z,97.00
2023-02-02T16:16:31.155Z,96.40
2023-02-02T16:21:34.226Z,96.90
2023-02-02T16:26:36.416Z,96.90
2023-02-02T16:31:38.375Z,96.80
2023-02-02T16:36:40.227Z,96.90
2023-02-02T16:41:42.088Z,96.80
2023-02-02T16:46:47.707Z,96.70
2023-02-02T16:52:18.002Z,96.70
2023-02-02T16:57:25.825Z,96.50
2023-02-02T17:02:27.529Z,96.50
2023-02-02T17:07:31.740Z,96.50
2023-02-02T17:12:34.940Z,96.50
2023-02-02T17:17:37.113Z,96.50
2023-02-02T17:22:45.367Z,96.50
2023-02-02T17:27:47.630Z,96.30
2023-02-02T17:32:49.380Z,96.20
2023-02-02T17:37:54.253Z,96.30
2023-02-02T17:42:55.906Z,96.00
2023-02-02T17:47:57.589Z,96.80
2023-02-02T17:52:59.418Z,96.90
2023-02-02T17:58:01.074Z,97.00
2023-02-02T18:03:25.263Z,97.30
2023-02-02T18:08:27.815Z,97.30
2023-02-02T18:13:29.567Z,97.00
2023-02-02T18:18:31.231Z,96.90
2023-02-02T18:23:32.903Z,96.80
2023-02-02T18:28:34.959Z,97.00
2023-02-02T18:33:37.281Z,97.20
2023-02-02T18:38:40.628Z,97.40
2023-02-02T18:43:42.687Z,97.90
2023-02-02T18:48:44.335Z,98.10
2023-02-02T18:53:47.064Z,97.90
2023-02-02T18:58:48.768Z,98.00
2023-02-02T19:03:52.853Z,98.00
2023-02-02T19:08:54.977Z,98.10
2023-02-02T19:13:56.656Z,98.30
2023-02-02T19:19:04.430Z,98.30
2023-02-02T19:24:10.926Z,98.50
2023-02-02T19:29:21.474Z,98.50
2023-02-02T19:34:23.407Z,98.40
2023-02-02T19:39:31.451Z,98.30
2023-02-02T19:44:34.278Z,98.30
2023-02-02T19:49:36.954Z,98.40
2023-02-02T19:54:42.045Z,98.50
2023-02-02T19:59:47.754Z,98.70
2023-02-02T20:04:59.980Z,98.80
2023-02-02T20:10:23.672Z,98.40
2023-02-02T20:15:32.351Z,98.90
2023-02-02T20:20:43.266Z,99.00
2023-02-02T20:25:45.614Z,99.10
2023-02-02T20:30:47.827Z,99.10
2023-02-02T20:35:50.023Z,99.10
2023-02-02T20:40:52.339Z,99.30
2023-02-02T20:45:54.146Z,99.40
2023-02-02T20:50:55.992Z,99.30
2023-02-02T20:55:59.865Z,99.50
2023-02-02T21:01:05.366Z,99.80
2023-02-02T21:06:07.220Z,99.90
2023-02-02T21:11:08.985Z,99.80
2023-02-02T21:16:10.926Z,99.70
2023-02-02T21:21:14.301Z,99.50
2023-02-02T21:31:21.223Z,99.30
2023-02-02T21:36:36.906Z,99.40
2023-02-02T21:41:38.674Z,99.40
2023-02-02T21:46:40.590Z,99.30
2023-02-02T21:51:42.523Z,99.10
2023-02-02T21:56:44.301Z,99.10
2023-02-02T22:01:48.111Z,99.00
2023-02-02T22:06:56.467Z,98.90
2023-02-02T22:12:03.897Z,98.70
2023-02-02T22:17:40.123Z,98.50
2023-02-02T22:22:51.975Z,98.30
2023-02-02T22:27:59.942Z,98.10
2023-02-02T22:33:01.739Z,98.10
2023-02-02T22:38:04.176Z,98.00
2023-02-02T22:43:07.894Z,98.00
2023-02-02T22:48:10.133Z,97.80
2023-02-02T22:53:13.937Z,97.70
2023-02-02T22:58:15.588Z,97.80
2023-02-02T23:03:17.348Z,97.80
2023-02-02T23:08:19.059Z,97.70
2023-02-02T23:13:20.785Z,97.70
2023-02-02T23:18:22.833Z,97.20
2023-02-02T23:23:24.512Z,97.80
2023-02-02T23:28:26.373Z,97.50
2023-02-02T23:33:28.153Z,97.40
2023-02-02T23:38:29.820Z,97.40
2023-02-02T23:43:31.581Z,97.20
2023-02-02T23:48:34.385Z,97.30
2023-02-02T23:53:36.333Z,97.10
2023-02-02T23:58:38.113Z,97.10
